createdAt,value
2023-05-09T00:02:50.253Z,7.80
2023-05-09T00:08:52.731Z,7.81
2023-05-09T00:14:57.269Z,7.80
2023-05-09T00:21:01.663Z,7.80
2023-05-09T00:27:04.187Z,7.49
2023-05-09T00:33:06.741Z,7.89
2023-05-09T00:39:10.126Z,7.48
2023-05-09T00:45:12.819Z,7.26
2023-05-09T00:51:16.098Z,7.78
2023-05-09T00:57:18.568Z,7.72
2023-05-09T01:03:24.244Z,7.68
2023-05-09T01:09:57.657Z,7.66
2023-05-09T01:16:07.205Z,6.87
2023-05-09T01:22:12.630Z,7.70
2023-05-09T01:28:52.250Z,7.62
2023-05-09T01:34:57.758Z,7.43
2023-05-09T01:41:01.213Z,7.50
2023-05-09T01:47:08.694Z,7.23
2023-05-09T01:53:14.960Z,7.55
2023-05-09T01:59:19.656Z,7.57
2023-05-09T02:05:27.169Z,6.76
2023-05-09T02:11:29.641Z,7.47
2023-05-09T02:17:33.169Z,7.57
2023-05-09T02:23:38.692Z,7.55
2023-05-09T02:29:51.138Z,6.77
2023-05-09T02:35:54.676Z,7.58
2023-05-09T02:41:57.132Z,7.54
2023-05-09T02:47:59.598Z,7.54
2023-05-09T02:54:02.136Z,7.54
2023-05-09T03:00:10.573Z,7.53
2023-05-09T03:06:13.058Z,7.33
2023-05-09T03:12:16.575Z,6.89
2023-05-09T03:18:20.018Z,7.36
2023-05-09T03:24:22.498Z,6.74
2023-05-09T03:30:25.011Z,7.28
2023-05-09T03:36:30.503Z,7.54
2023-05-09T03:42:32.960Z,7.54
2023-05-09T03:48:35.498Z,7.57
2023-05-09T03:54:37.984Z,7.64
2023-05-09T04:00:41.433Z,7.59
2023-05-09T04:06:48.024Z,7.65
2023-05-09T04:12:50.696Z,7.34
2023-05-09T04:18:52.886Z,7.46
2023-05-09T04:24:57.049Z,6.78
2023-05-09T04:30:59.930Z,7.82
2023-05-09T04:37:05.312Z,7.91
2023-05-09T04:43:07.829Z,7.95
2023-05-09T04:49:10.285Z,8.02
2023-05-09T04:55:18.262Z,7.85
2023-05-09T05:01:20.274Z,7.96
2023-05-09T05:07:22.731Z,8.24
2023-05-09T05:13:26.849Z,8.45
2023-05-09T05:19:47.018Z,7.73
2023-05-09T05:25:51.323Z,8.68
2023-05-09T05:32:13.773Z,9.01
2023-05-09T05:38:21.295Z,9.29
2023-05-09T05:50:49.838Z,7.86
2023-05-09T05:56:58.294Z,9.35
2023-05-09T06:03:04.634Z,9.17
2023-05-09T06:09:13.931Z,10.15
2023-05-09T06:16:20.363Z,10.84
2023-05-09T06:22:23.585Z,10.83
2023-05-09T06:28:34.666Z,11.00
2023-05-09T06:34:40.118Z,10.81
2023-05-09T06:40:57.079Z,9.99
2023-05-09T06:47:02.432Z,10.64
2023-05-09T06:59:43.344Z,11.31
2023-05-09T07:06:00.821Z,11.05
2023-05-09T07:12:16.371Z,12.59
2023-05-09T07:18:26.871Z,11.91
2023-05-09T07:24:56.013Z,11.94
2023-05-09T07:31:02.937Z,12.94
2023-05-09T07:37:30.633Z,12.21
2023-05-09T07:43:36.039Z,12.35
2023-05-09T07:49:44.517Z,12.99
2023-05-09T07:55:54.006Z,13.68
2023-05-09T08:02:02.591Z,13.69
2023-05-09T08:08:05.057Z,13.23
2023-05-09T08:14:07.529Z,13.76
2023-05-09T08:20:15.006Z,11.78
2023-05-09T08:26:19.722Z,13.03
2023-05-09T08:32:25.000Z,13.98
2023-05-09T08:38:28.459Z,13.68
2023-05-09T08:44:35.954Z,13.54
2023-05-09T08:50:55.380Z,13.55
2023-05-09T08:56:59.002Z,14.89
2023-05-09T09:03:06.159Z,14.04
2023-05-09T09:09:15.594Z,15.43
2023-05-09T09:15:20.472Z,14.71
2023-05-09T09:21:23.913Z,13.21
2023-05-09T09:27:26.434Z,12.69
2023-05-09T09:33:32.528Z,13.10
2023-05-09T09:39:34.724Z,13.03
2023-05-09T09:45:54.817Z,14.08
2023-05-09T09:51:59.390Z,12.48
2023-05-09T09:58:01.861Z,14.06
2023-05-09T10:04:10.437Z,13.41
2023-05-09T10:10:13.212Z,13.70
2023-05-09T10:16:21.451Z,13.85
2023-05-09T10:22:35.078Z,14.28
2023-05-09T10:28:41.392Z,14.28
2023-05-09T10:34:52.790Z,13.66
2023-05-09T10:40:57.666Z,14.07
2023-05-09T10:47:00.862Z,12.71
2023-05-09T10:53:15.765Z,13.01
2023-05-09T10:59:41.092Z,13.92
2023-05-09T11:05:47.883Z,13.52
2023-05-09T11:12:12.852Z,13.12
2023-05-09T11:18:15.269Z,14.05
2023-05-09T11:24:26.000Z,13.28
2023-05-09T11:30:43.573Z,14.28
2023-05-09T11:36:49.679Z,14.11
2023-05-09T11:42:59.655Z,14.47
2023-05-09T11:49:21.190Z,13.68
2023-05-09T11:55:31.883Z,14.95
2023-05-09T12:01:40.347Z,14.20
2023-05-09T12:07:43.648Z,14.38
2023-05-09T12:14:08.284Z,14.94
2023-05-09T12:20:21.380Z,13.02
2023-05-09T12:26:44.067Z,14.37
2023-05-09T12:33:24.978Z,14.24
2023-05-09T12:39:30.464Z,14.15
2023-05-09T12:45:42.983Z,13.53
2023-05-09T12:52:19.413Z,14.75
2023-05-09T12:59:20.624Z,14.62
2023-05-09T13:05:47.900Z,14.44
2023-05-09T13:12:01.384Z,13.61
2023-05-09T13:18:23.985Z,13.05
2023-05-09T13:24:43.226Z,13.62
2023-05-09T13:30:54.806Z,13.83
2023-05-09T13:37:05.475Z,13.64
2023-05-09T13:43:11.990Z,12.94
2023-05-09T13:49:40.288Z,13.40
2023-05-09T13:55:44.999Z,13.18
2023-05-09T14:01:49.502Z,13.44
2023-05-09T14:07:53.086Z,13.42
2023-05-09T14:13:56.216Z,13.24
2023-05-09T14:20:41.122Z,13.77
2023-05-09T14:27:01.115Z,13.55
2023-05-09T14:33:07.681Z,13.99
2023-05-09T14:40:18.381Z,13.43
2023-05-09T14:46:25.423Z,12.90
2023-05-09T14:52:49.939Z,13.54
2023-05-09T14:58:57.572Z,13.88
2023-05-09T15:05:16.815Z,12.96
2023-05-09T15:11:28.838Z,13.88
2023-05-09T15:18:15.635Z,14.06
2023-05-09T15:25:20.919Z,13.66
2023-05-09T15:31:29.591Z,12.69
2023-05-09T15:37:48.857Z,12.50
2023-05-09T15:43:56.794Z,12.69
2023-05-09T15:56:29.930Z,13.12
2023-05-09T16:02:58.290Z,13.00
2023-05-09T16:09:07.656Z,13.07
2023-05-09T16:15:17.645Z,11.41
2023-05-09T16:21:46.320Z,12.56
2023-05-09T16:27:50.435Z,12.36
2023-05-09T16:34:12.808Z,12.39
2023-05-09T16:40:47.750Z,12.28
2023-05-09T16:46:59.271Z,12.11
2023-05-09T16:53:14.429Z,11.96
2023-05-09T16:59:17.873Z,12.25
2023-05-09T17:05:27.456Z,12.16
2023-05-09T17:11:35.503Z,12.93
2023-05-09T17:17:38.417Z,13.01
2023-05-09T17:23:40.853Z,13.05
2023-05-09T17:29:43.310Z,12.83
2023-05-09T17:35:45.785Z,12.80
2023-05-09T17:41:47.597Z,12.79
2023-05-09T17:47:50.984Z,12.59
2023-05-09T17:53:56.936Z,12.11
2023-05-09T18:00:09.732Z,12.48
2023-05-09T18:06:14.738Z,11.71
2023-05-09T18:12:21.006Z,12.71
2023-05-09T18:18:30.158Z,12.25
2023-05-09T18:24:35.671Z,12.39
2023-05-09T18:30:41.151Z,12.03
2023-05-09T18:36:44.652Z,11.58
2023-05-09T18:42:55.231Z,12.12
2023-05-09T18:48:58.165Z,12.06
2023-05-09T19:01:18.706Z,12.04
2023-05-09T19:07:23.807Z,11.78
2023-05-09T19:13:26.698Z,11.61
2023-05-09T19:19:29.119Z,9.55
2023-05-09T19:25:34.595Z,9.88
2023-05-09T19:31:46.124Z,10.43
2023-05-09T19:37:49.410Z,9.58
2023-05-09T19:44:00.199Z,10.96
2023-05-09T19:50:05.495Z,11.12
2023-05-09T19:56:09.064Z,9.95
2023-05-09T20:02:14.660Z,10.54
2023-05-09T20:08:17.269Z,10.55
2023-05-09T20:14:19.514Z,10.11
2023-05-09T20:20:23.972Z,11.26
2023-05-09T20:26:28.859Z,11.11
2023-05-09T20:32:31.990Z,10.86
2023-05-09T20:38:42.706Z,11.16
2023-05-09T20:44:49.014Z,9.07
2023-05-09T20:50:53.872Z,8.86
2023-05-09T20:56:55.932Z,9.35
2023-05-09T21:03:13.924Z,10.45
2023-05-09T21:15:31.413Z,10.50
2023-05-09T21:21:36.951Z,9.00
2023-05-09T21:27:44.457Z,9.13
2023-05-09T21:33:47.785Z,10.44
2023-05-09T21:39:52.408Z,10.10
2023-05-09T21:45:55.803Z,10.20
2023-05-09T21:51:58.263Z,9.96
2023-05-09T21:58:08.487Z,9.83
2023-05-09T22:04:11.242Z,9.27
2023-05-09T22:10:15.967Z,10.17
2023-05-09T22:16:18.314Z,10.23
2023-05-09T22:22:20.643Z,9.48
2023-05-09T22:28:23.131Z,10.14
2023-05-09T22:34:25.626Z,9.89
2023-05-09T22:40:28.107Z,9.91
2023-05-09T22:46:33.471Z,10.08
2023-05-09T22:52:36.046Z,9.75
2023-05-09T22:58:38.566Z,8.71
2023-05-09T23:04:40.972Z,8.65
2023-05-09T23:10:46.384Z,8.38
2023-05-09T23:16:57.306Z,8.83
2023-05-09T23:23:11.519Z,9.21
2023-05-09T23:29:17.030Z,9.70
2023-05-09T23:35:22.471Z,8.98
2023-05-09T23:41:31.287Z,9.29
2023-05-09T23:47:34.579Z,9.49
2023-05-09T23:53:42.597Z,9.17
2023-05-09T23:59:48.445Z,8.22
